createdAt,value
2022-08-08T00:01:10.082Z,17.50
2022-08-08T00:05:22.337Z,17.20
2022-08-08T00:09:55.370Z,17.10
2022-08-08T00:14:16.678Z,17.20
2022-08-08T00:18:35.675Z,17.20
2022-08-08T00:22:44.752Z,17.10
2022-08-08T00:26:51.719Z,17.10
2022-08-08T00:31:00.585Z,17.10
2022-08-08T00:35:28.263Z,17.10
2022-08-08T00:41:10.839Z,16.90
2022-08-08T00:44:30.887Z,16.90
2022-08-08T00:49:22.713Z,16.90
2022-08-08T00:53:57.222Z,16.90
2022-08-08T00:58:33.682Z,16.80
2022-08-08T01:03:59.345Z,16.80
2022-08-08T01:08:05.577Z,16.40
2022-08-08T01:12:44.522Z,15.80
2022-08-08T01:17:35.105Z,15.60
2022-08-08T01:22:34.875Z,15.60
2022-08-08T01:27:10.828Z,15.80
2022-08-08T01:32:14.864Z,15.90
2022-08-08T01:36:55.392Z,16.10
2022-08-08T01:41:06.541Z,16.20
2022-08-08T01:45:33.863Z,16.30
2022-08-08T01:49:53.438Z,16.20
2022-08-08T01:55:16.904Z,16.10
2022-08-08T01:58:47.072Z,16.00
2022-08-08T02:03:56.772Z,16.00
2022-08-08T02:07:59.492Z,15.90
2022-08-08T02:12:12.460Z,16.10
2022-08-08T02:16:23.751Z,16.10
2022-08-08T02:21:00.668Z,16.20
2022-08-08T02:25:15.122Z,16.20
2022-08-08T02:29:51.789Z,16.10
2022-08-08T02:34:08.617Z,16.20
2022-08-08T02:38:44.755Z,16.10
2022-08-08T02:44:37.502Z,16.00
2022-08-08T02:48:27.366Z,15.80
2022-08-08T02:52:50.845Z,15.90
2022-08-08T02:57:40.516Z,15.80
2022-08-08T03:02:20.786Z,15.90
2022-08-08T03:06:58.915Z,15.90
2022-08-08T03:11:59.807Z,15.90
2022-08-08T03:16:13.967Z,15.70
2022-08-08T03:20:51.413Z,15.40
2022-08-08T03:25:09.301Z,15.30
2022-08-08T03:29:54.773Z,15.50
2022-08-08T03:33:54.855Z,15.50
2022-08-08T03:38:56.823Z,15.50
2022-08-08T03:42:30.584Z,15.40
2022-08-08T03:46:47.215Z,15.40
2022-08-08T03:50:51.863Z,15.30
2022-08-08T03:55:10.168Z,15.30
2022-08-08T03:59:22.514Z,15.30
2022-08-08T04:03:59.028Z,15.30
2022-08-08T04:07:59.095Z,15.30
2022-08-08T04:12:05.767Z,15.40
2022-08-08T04:16:23.422Z,15.30
2022-08-08T04:20:44.264Z,15.40
2022-08-08T04:24:50.097Z,15.30
2022-08-08T04:28:54.374Z,15.20
2022-08-08T04:32:59.126Z,15.10
2022-08-08T04:37:06.037Z,15.10
2022-08-08T04:41:10.624Z,15.10
2022-08-08T04:45:21.764Z,15.20
2022-08-08T04:49:28.803Z,15.30
2022-08-08T04:54:37.404Z,15.30
2022-08-08T04:58:11.047Z,15.40
2022-08-08T05:02:16.157Z,15.50
2022-08-08T05:06:25.567Z,15.40
2022-08-08T05:10:31.247Z,15.30
2022-08-08T05:14:37.439Z,15.50
2022-08-08T05:18:43.195Z,15.70
2022-08-08T05:22:50.273Z,15.80
2022-08-08T05:26:54.553Z,16.00
2022-08-08T05:30:57.555Z,16.20
2022-08-08T05:35:14.468Z,16.60
2022-08-08T05:39:22.452Z,17.20
2022-08-08T05:44:02.412Z,17.40
2022-08-08T05:48:01.446Z,17.90
2022-08-08T05:52:05.441Z,18.70
2022-08-08T05:56:15.189Z,19.70
2022-08-08T06:00:24.998Z,21.20
2022-08-08T06:04:34.783Z,24.40
2022-08-08T06:08:53.017Z,25.50
2022-08-08T06:13:01.542Z,29.10
2022-08-08T06:17:06.709Z,28.40
2022-08-08T06:21:33.222Z,29.70
2022-08-08T06:26:43.361Z,29.70
2022-08-08T06:30:29.150Z,30.40
2022-08-08T06:34:37.687Z,30.50
2022-08-08T06:38:47.130Z,30.80
2022-08-08T06:42:57.235Z,28.00
2022-08-08T06:47:09.551Z,27.50
2022-08-08T06:51:15.747Z,26.90
2022-08-08T06:55:20.967Z,25.20
2022-08-08T06:59:25.143Z,24.40
2022-08-08T07:03:52.184Z,23.40
2022-08-08T07:08:13.254Z,22.80
2022-08-08T07:12:30.604Z,25.10
2022-08-08T07:16:51.015Z,24.50
2022-08-08T07:21:05.234Z,23.90
2022-08-08T07:25:29.378Z,24.10
2022-08-08T07:30:00.533Z,25.10
2022-08-08T07:34:00.026Z,23.50
2022-08-08T07:38:10.461Z,23.10
2022-08-08T07:42:32.872Z,23.90
2022-08-08T07:46:37.746Z,23.40
2022-08-08T07:50:50.079Z,23.90
2022-08-08T07:55:03.811Z,23.40
2022-08-08T07:59:14.747Z,23.30
2022-08-08T08:03:31.045Z,23.60
2022-08-08T08:07:53.038Z,22.80
2022-08-08T08:12:04.033Z,23.40
2022-08-08T08:16:17.162Z,23.70
2022-08-08T08:20:29.625Z,23.40
2022-08-08T08:24:35.342Z,24.50
2022-08-08T08:28:41.449Z,24.80
2022-08-08T08:32:51.162Z,25.40
2022-08-08T08:36:56.014Z,24.40
2022-08-08T08:41:00.098Z,25.00
2022-08-08T08:45:21.943Z,25.30
2022-08-08T08:49:33.975Z,26.20
2022-08-08T08:53:55.214Z,25.50
2022-08-08T08:58:04.044Z,26.60
2022-08-08T09:02:18.275Z,27.60
2022-08-08T09:06:28.340Z,27.90
2022-08-08T09:10:34.584Z,27.40
2022-08-08T09:14:42.240Z,27.00
2022-08-08T09:18:48.476Z,27.00
2022-08-08T09:22:58.516Z,26.50
2022-08-08T09:27:08.105Z,28.30
2022-08-08T09:31:56.568Z,28.10
2022-08-08T09:36:06.103Z,27.30
2022-08-08T09:40:11.876Z,26.30
2022-08-08T09:44:33.796Z,28.20
2022-08-08T09:48:42.400Z,27.90
2022-08-08T09:52:58.479Z,26.70
2022-08-08T09:57:05.863Z,28.10
2022-08-08T10:01:59.897Z,29.20
2022-08-08T10:05:46.854Z,29.10
2022-08-08T10:10:00.119Z,29.40
2022-08-08T10:14:07.333Z,28.60
2022-08-08T10:18:33.363Z,29.50
2022-08-08T10:22:54.805Z,28.20
2022-08-08T10:27:01.863Z,29.00
2022-08-08T10:31:46.774Z,29.80
2022-08-08T10:36:08.102Z,31.00
2022-08-08T10:40:21.039Z,31.00
2022-08-08T10:44:30.542Z,27.70
2022-08-08T10:48:38.928Z,30.10
2022-08-08T10:53:02.330Z,28.10
2022-08-08T10:57:08.947Z,28.70
2022-08-08T11:01:13.400Z,29.40
2022-08-08T11:05:19.392Z,29.00
2022-08-08T11:09:25.994Z,29.80
2022-08-08T11:13:31.743Z,28.70
2022-08-08T11:18:00.719Z,28.50
2022-08-08T11:22:04.266Z,28.90
2022-08-08T11:26:08.144Z,27.80
2022-08-08T11:30:24.326Z,28.70
2022-08-08T11:34:41.956Z,29.00
2022-08-08T11:38:57.832Z,30.00
2022-08-08T11:43:01.613Z,30.60
2022-08-08T11:47:12.831Z,29.60
2022-08-08T11:51:30.444Z,30.30
2022-08-08T11:55:49.187Z,31.70
2022-08-08T12:00:07.852Z,31.10
2022-08-08T12:04:16.481Z,31.20
2022-08-08T12:08:33.884Z,34.10
2022-08-08T12:12:46.001Z,34.50
2022-08-08T12:16:53.117Z,37.80
2022-08-08T12:20:59.947Z,40.20
2022-08-08T12:25:04.597Z,37.30
2022-08-08T12:29:42.323Z,41.70
2022-08-08T12:34:02.805Z,42.20
2022-08-08T12:38:08.994Z,43.50
2022-08-08T12:42:20.968Z,41.80
2022-08-08T12:46:26.538Z,47.20
2022-08-08T12:50:46.919Z,43.50
2022-08-08T12:54:49.809Z,48.90
2022-08-08T12:58:55.903Z,47.40
2022-08-08T13:03:00.966Z,40.20
2022-08-08T13:07:07.527Z,38.40
2022-08-08T13:11:22.744Z,45.30
2022-08-08T13:15:31.143Z,42.80
2022-08-08T13:19:41.207Z,40.70
2022-08-08T13:23:53.250Z,41.40
2022-08-08T13:28:00.536Z,42.70
2022-08-08T13:32:06.983Z,42.90
2022-08-08T13:36:11.534Z,42.60
2022-08-08T13:40:18.122Z,40.60
2022-08-08T13:44:31.401Z,41.10
2022-08-08T13:48:44.431Z,37.90
2022-08-08T13:52:48.173Z,36.30
2022-08-08T13:57:01.740Z,36.60
2022-08-08T14:01:16.517Z,36.30
2022-08-08T14:05:28.646Z,35.60
2022-08-08T14:10:04.756Z,34.30
2022-08-08T14:14:08.512Z,32.40
2022-08-08T14:18:36.954Z,31.80
2022-08-08T14:22:42.081Z,30.80
2022-08-08T14:26:46.657Z,31.10
2022-08-08T14:30:50.284Z,30.10
2022-08-08T14:34:54.338Z,30.20
2022-08-08T14:39:01.023Z,29.80
2022-08-08T14:43:31.796Z,28.70
2022-08-08T14:47:36.298Z,29.60
2022-08-08T14:51:52.103Z,29.90
2022-08-08T14:56:02.077Z,29.10
2022-08-08T15:00:09.505Z,29.20
2022-08-08T15:04:14.299Z,29.00
2022-08-08T15:08:22.466Z,28.80
2022-08-08T15:12:40.735Z,28.60
2022-08-08T15:16:44.401Z,28.50
2022-08-08T15:20:47.410Z,27.90
2022-08-08T15:24:51.678Z,28.00
2022-08-08T15:28:55.819Z,28.50
2022-08-08T15:32:58.576Z,28.40
2022-08-08T15:37:03.114Z,28.80
2022-08-08T15:41:06.348Z,28.80
2022-08-08T15:45:11.295Z,28.60
2022-08-08T15:49:14.183Z,27.80
2022-08-08T15:53:22.143Z,28.00
2022-08-08T15:57:24.921Z,28.00
2022-08-08T16:01:40.399Z,28.00
2022-08-08T16:06:00.946Z,27.70
2022-08-08T16:13:09.379Z,27.50
2022-08-08T16:14:32.710Z,27.20
2022-08-08T16:18:37.607Z,27.40
2022-08-08T16:22:41.663Z,27.20
2022-08-08T16:26:44.927Z,27.20
2022-08-08T16:30:51.885Z,27.00
2022-08-08T16:34:56.799Z,26.80
2022-08-08T16:38:59.795Z,26.70
2022-08-08T16:43:02.660Z,26.50
2022-08-08T16:47:22.026Z,26.60
2022-08-08T16:55:02.593Z,26.60
2022-08-08T16:56:08.861Z,26.30
2022-08-08T17:00:26.499Z,26.20
2022-08-08T17:04:29.959Z,26.10
2022-08-08T17:08:34.533Z,26.10
2022-08-08T17:12:38.947Z,25.90
2022-08-08T17:16:57.587Z,25.90
2022-08-08T17:21:01.571Z,25.90
2022-08-08T17:25:06.815Z,25.80
2022-08-08T17:29:10.037Z,25.70
2022-08-08T17:34:35.267Z,25.50
2022-08-08T17:37:41.295Z,25.30
2022-08-08T17:41:58.649Z,25.20
2022-08-08T17:46:05.817Z,24.90
2022-08-08T17:50:11.266Z,24.70
2022-08-08T17:54:22.379Z,24.60
2022-08-08T17:58:30.172Z,24.30
2022-08-08T18:02:33.049Z,24.20
2022-08-08T18:06:43.106Z,24.10
2022-08-08T18:10:48.582Z,24.10
2022-08-08T18:14:52.775Z,24.00
2022-08-08T18:18:58.189Z,23.90
2022-08-08T18:23:03.140Z,23.70
2022-08-08T18:27:17.471Z,23.50
2022-08-08T18:31:22.480Z,23.50
2022-08-08T18:35:34.221Z,23.40
2022-08-08T18:39:49.536Z,23.40
2022-08-08T18:43:53.726Z,23.20
2022-08-08T18:47:57.848Z,23.10
2022-08-08T18:52:02.129Z,23.00
2022-08-08T18:56:06.501Z,22.90
2022-08-08T19:00:16.347Z,22.90
2022-08-08T19:04:23.745Z,22.80
2022-08-08T19:08:32.484Z,22.80
2022-08-08T19:12:35.548Z,22.70
2022-08-08T19:16:42.344Z,22.60
2022-08-08T19:20:47.058Z,22.60
2022-08-08T19:25:29.365Z,22.60
2022-08-08T19:29:12.820Z,22.30
2022-08-08T19:33:24.307Z,22.30
2022-08-08T19:37:43.241Z,22.20
2022-08-08T19:41:49.583Z,22.10
2022-08-08T19:45:59.738Z,22.10
2022-08-08T19:50:04.025Z,22.00
2022-08-08T19:54:08.248Z,21.80
2022-08-08T19:58:11.109Z,21.50
2022-08-08T20:02:19.585Z,21.20
2022-08-08T20:06:22.929Z,21.10
2022-08-08T20:10:27.186Z,20.90
2022-08-08T20:14:34.079Z,20.60
2022-08-08T20:18:53.073Z,20.40
2022-08-08T20:22:56.855Z,20.20
2022-08-08T20:27:00.958Z,20.00
2022-08-08T20:31:03.820Z,20.10
2022-08-08T20:35:08.003Z,20.10
2022-08-08T20:39:12.253Z,20.20
2022-08-08T20:43:23.176Z,20.10
2022-08-08T20:47:39.595Z,20.10
2022-08-08T20:51:42.425Z,20.00
2022-08-08T20:55:51.149Z,19.90
2022-08-08T20:59:56.117Z,19.90
2022-08-08T21:04:01.477Z,19.90
2022-08-08T21:08:36.461Z,19.80
2022-08-08T21:12:33.107Z,19.70
2022-08-08T21:16:37.684Z,19.70
2022-08-08T21:20:42.202Z,19.70
2022-08-08T21:24:52.746Z,19.60
2022-08-08T21:29:01.000Z,19.60
2022-08-08T21:33:10.903Z,19.50
2022-08-08T21:37:18.985Z,19.50
2022-08-08T21:41:38.221Z,19.10
2022-08-08T21:48:07.692Z,19.10
2022-08-08T21:50:10.419Z,19.00
2022-08-08T21:54:31.287Z,18.80
2022-08-08T21:58:37.718Z,19.00
2022-08-08T22:02:40.727Z,19.00
2022-08-08T22:06:45.145Z,19.00
2022-08-08T22:10:48.455Z,18.90
2022-08-08T22:14:52.764Z,18.90
2022-08-08T22:18:55.530Z,18.90
2022-08-08T22:23:03.707Z,18.80
2022-08-08T22:27:07.286Z,18.80
2022-08-08T22:31:10.330Z,18.70
2022-08-08T22:35:15.678Z,18.60
2022-08-08T22:39:39.538Z,18.50
2022-08-08T22:44:02.137Z,18.50
2022-08-08T22:48:07.167Z,18.30
2022-08-08T22:52:09.991Z,18.20
2022-08-08T22:56:14.941Z,18.10
2022-08-08T23:00:18.228Z,18.00
2022-08-08T23:04:31.852Z,18.00
2022-08-08T23:08:35.894Z,18.10
2022-08-08T23:12:51.543Z,18.10
2022-08-08T23:16:59.067Z,18.00
2022-08-08T23:21:04.527Z,17.90
2022-08-08T23:25:08.880Z,17.90
2022-08-08T23:29:14.457Z,17.90
2022-08-08T23:34:15.403Z,17.90
2022-08-08T23:38:01.479Z,17.80
2022-08-08T23:42:06.674Z,17.80
2022-08-08T23:49:03.602Z,17.80
2022-08-08T23:50:34.965Z,17.70
2022-08-08T23:54:43.445Z,17.70
2022-08-08T23:58:56.274Z,17.50
